Time;durP1;ratioP1;P1;durP2;ratioP2;P2;SDS_P1;SDS_P2;PMS_P1;PMS_P2;Temp;Humidity;BMP_temperature;BMP_pressure;BME280_temperature;BME280_humidity;BME280_pressure;Samples;Min_cycle;Max_cycle;Signal;HPM_P1;HPM_P2
2023/07/13 00:00:44;;;;;;;1.10;0.80;;;;;21.00;96712.00;;;;4976777;28;20210;-71
2023/07/13 00:03:34;;;;;;;1.73;0.93;;;;;20.90;96711.00;;;;4977838;28;20241;-70
2023/07/13 00:06:25;;;;;;;2.47;0.90;;;;;20.80;96719.00;;;;4969310;28;20755;-71
2023/07/13 00:09:15;;;;;;;1.07;0.80;;;;;20.90;96706.00;;;;4968326;28;20566;-71
2023/07/13 00:12:06;;;;;;;2.07;1.10;;;;;21.00;96704.00;;;;4976995;28;20206;-71
2023/07/13 00:14:56;;;;;;;2.30;1.00;;;;;20.90;96708.00;;;;4984929;28;20222;-71
2023/07/13 00:17:45;;;;;;;0.70;0.70;;;;;20.90;96708.00;;;;4976400;28;20230;-71
2023/07/13 00:20:35;;;;;;;0.97;0.93;;;;;21.10;96681.00;;;;4968215;28;20203;-71
2023/07/13 00:23:25;;;;;;;1.20;0.80;;;;;21.10;96677.00;;;;4976179;28;20210;-71
2023/07/13 00:26:15;;;;;;;2.57;0.73;;;;;20.80;96667.00;;;;4975852;28;20242;-71
2023/07/13 00:29:06;;;;;;;1.00;0.90;;;;;20.70;96667.00;;;;4975174;28;20218;-71
2023/07/13 00:31:55;;;;;;;1.37;0.83;;;;;21.10;96673.00;;;;4969448;28;20208;-71
2023/07/13 00:34:44;;;;;;;1.33;1.10;;;;;21.10;96656.00;;;;4977121;28;20235;-71
2023/07/13 00:37:35;;;;;;;1.47;1.27;;;;;21.00;96638.00;;;;4977947;28;20898;-71
2023/07/13 00:40:25;;;;;;;2.20;1.10;;;;;21.10;96630.00;;;;4979293;28;20248;-71
2023/07/13 00:43:18;;;;;;;1.17;1.00;;;;;21.10;96620.00;;;;4984512;28;20215;-71
2023/07/13 00:46:29;;;;;;;1.90;1.20;;;;;20.80;96626.00;;;;4978390;28;20207;-71
2023/07/13 00:49:20;;;;;;;2.80;1.50;;;;;20.90;96637.00;;;;4974094;28;20590;-70
2023/07/13 00:52:11;;;;;;;2.60;0.97;;;;;20.70;96624.00;;;;4964188;28;20703;-71
2023/07/13 00:55:00;;;;;;;1.13;1.00;;;;;20.70;96622.00;;;;4988050;28;20233;-70
2023/07/13 00:57:51;;;;;;;1.40;1.00;;;;;20.50;96635.00;;;;4985142;28;20219;-71
2023/07/13 01:00:40;;;;;;;5.80;1.10;;;;;20.60;96647.00;;;;4978356;28;20242;-70
2023/07/13 01:03:29;;;;;;;2.53;1.00;;;;;20.50;96655.00;;;;4980182;28;20210;-71
2023/07/13 01:06:19;;;;;;;1.30;0.90;;;;;20.70;96668.00;;;;4987948;28;20226;-71
2023/07/13 01:09:10;;;;;;;1.53;1.23;;;;;21.00;96660.00;;;;4991981;28;20206;-71
2023/07/13 01:11:59;;;;;;;4.67;1.93;;;;;21.00;96647.00;;;;4986489;28;20211;-71
2023/07/13 01:14:57;;;;;;;1.60;1.33;;;;;21.10;96645.00;;;;4980188;28;20249;-71
2023/07/13 01:17:46;;;;;;;5.23;1.30;;;;;21.10;96668.00;;;;4978045;28;20231;-71
2023/07/13 01:20:36;;;;;;;2.50;1.27;;;;;21.20;96698.00;;;;4963339;28;20254;-71
2023/07/13 01:23:27;;;;;;;1.90;1.80;;;;;21.20;96715.00;;;;4964307;28;20200;-72
2023/07/13 01:26:16;;;;;;;6.73;2.40;;;;;21.10;96730.00;;;;4973985;28;20662;-72
2023/07/13 01:29:07;;;;;;;2.27;2.07;;;;;21.00;96758.00;;;;4962234;28;20210;-72
2023/07/13 01:31:56;;;;;;;4.43;1.90;;;;;21.10;96779.00;;;;4961909;28;20581;-72
2023/07/13 01:34:46;;;;;;;3.30;2.03;;;;;21.10;96787.00;;;;4962258;28;20693;-72
2023/07/13 01:37:35;;;;;;;3.37;1.57;;;;;21.10;96796.00;;;;4961390;28;20216;-73
2023/07/13 01:40:26;;;;;;;2.80;2.17;;;;;21.20;96820.00;;;;4963690;28;20208;-72
2023/07/13 01:43:15;;;;;;;7.50;2.00;;;;;21.10;96828.00;;;;4961372;28;20254;-73
2023/07/13 01:46:04;;;;;;;8.63;2.70;;;;;21.00;96834.00;;;;4961108;28;20250;-73
2023/07/13 01:49:04;;;;;;;3.70;2.30;;;;;21.00;96849.00;;;;4963053;28;20688;-72
2023/07/13 01:51:53;;;;;;;2.27;1.73;;;;;20.70;96859.00;;;;4967968;28;20964;-72
2023/07/13 01:54:42;;;;;;;4.30;1.83;;;;;20.80;96881.00;;;;4988618;28;20231;-72
2023/07/13 01:57:33;;;;;;;3.87;2.00;;;;;20.60;96914.00;;;;4972743;28;20238;-72
2023/07/13 02:00:22;;;;;;;4.30;2.50;;;;;20.80;96937.00;;;;4990544;28;20575;-73
2023/07/13 02:03:11;;;;;;;4.13;2.73;;;;;21.00;96957.00;;;;4963602;28;20216;-72
2023/07/13 02:06:00;;;;;;;4.80;1.87;;;;;20.30;96981.00;;;;4963376;28;20196;-73
2023/07/13 02:08:49;;;;;;;3.67;1.73;;;;;20.60;96999.00;;;;4973954;28;20222;-72
2023/07/13 02:11:38;;;;;;;3.93;1.80;;;;;20.60;97020.00;;;;4977010;28;20195;-72
2023/07/13 02:14:29;;;;;;;2.90;2.33;;;;;20.60;97024.00;;;;4974326;28;20210;-72
2023/07/13 02:17:18;;;;;;;2.67;1.93;;;;;20.70;97030.00;;;;4965541;28;20277;-72
2023/07/13 02:20:09;;;;;;;12.40;6.20;;;;;20.90;97011.00;;;;4984609;28;20206;-73
2023/07/13 02:22:58;;;;;;;5.67;2.40;;;;;20.90;97017.00;;;;4969044;28;20203;-73
2023/07/13 02:25:47;;;;;;;7.03;2.97;;;;;20.40;97030.00;;;;4987493;28;20719;-72
2023/07/13 02:28:36;;;;;;;5.13;2.47;;;;;20.70;96997.00;;;;5002180;28;20202;-73
2023/07/13 02:31:27;;;;;;;8.10;3.53;;;;;20.70;96969.00;;;;4994240;28;20210;-72
2023/07/13 02:34:16;;;;;;;3.90;2.60;;;;;20.60;96946.00;;;;5001885;28;20202;-72
2023/07/13 02:37:06;;;;;;;2.97;2.63;;;;;20.70;96913.00;;;;5009848;28;20230;-73
2023/07/13 02:39:55;;;;;;;4.80;2.20;;;;;20.50;96879.00;;;;5001472;28;20212;-72
2023/07/13 02:42:45;;;;;;;4.27;2.13;;;;;20.50;96868.00;;;;5001452;28;20209;-72
2023/07/13 02:45:34;;;;;;;2.70;2.20;;;;;20.60;96843.00;;;;5000851;28;20199;-72
2023/07/13 02:48:24;;;;;;;3.67;2.10;;;;;20.60;96753.00;;;;4998828;28;20206;-72
2023/07/13 02:51:13;;;;;;;4.17;2.07;;;;;20.10;96768.00;;;;4998624;28;20214;-71
2023/07/13 02:54:03;;;;;;;6.70;2.13;;;;;20.20;96762.00;;;;5009632;28;20717;-72
2023/07/13 02:56:52;;;;;;;2.60;1.77;;;;;20.40;96768.00;;;;5005983;28;20223;-72
2023/07/13 02:59:41;;;;;;;2.87;2.10;;;;;20.30;96827.00;;;;4997542;28;20217;-70
2023/07/13 03:02:30;;;;;;;3.53;1.87;;;;;20.30;96823.00;;;;5005761;28;20198;-69
2023/07/13 03:05:21;;;;;;;3.97;1.90;;;;;20.20;96849.00;;;;4993768;28;20231;-71
2023/07/13 03:08:10;;;;;;;2.60;2.13;;;;;20.50;96858.00;;;;4989834;28;20588;-71
2023/07/13 03:11:03;;;;;;;4.13;2.17;;;;;20.70;96857.00;;;;4994939;28;20202;-71
2023/07/13 03:13:52;;;;;;;3.23;2.03;;;;;20.50;96882.00;;;;4991950;28;20639;-70
2023/07/13 03:16:42;;;;;;;5.70;2.43;;;;;20.60;96915.00;;;;5004851;28;20730;-70
2023/07/13 03:19:31;;;;;;;5.07;2.23;;;;;20.40;96919.00;;;;5005402;28;20683;-71
2023/07/13 03:22:22;;;;;;;2.13;1.97;;;;;20.30;96932.00;;;;4997880;28;20225;-71
2023/07/13 03:25:11;;;;;;;4.83;2.50;;;;;20.20;96928.00;;;;4991350;28;20202;-72
2023/07/13 03:28:00;;;;;;;5.93;2.10;;;;;20.30;96875.00;;;;4996376;28;20230;-73
2023/07/13 03:30:49;;;;;;;4.63;2.27;;;;;20.20;96838.00;;;;4987920;28;20203;-73
2023/07/13 03:33:39;;;;;;;2.10;1.80;;;;;20.40;96781.00;;;;5004484;28;20217;-73
2023/07/13 03:36:32;;;;;;;4.50;2.30;;;;;20.50;96732.00;;;;4997499;28;20225;-73
2023/07/13 03:39:23;;;;;;;6.40;2.17;;;;;20.40;96660.00;;;;4997686;28;20265;-73
2023/07/13 03:42:12;;;;;;;3.60;1.93;;;;;20.20;96615.00;;;;5001194;28;20671;-72
2023/07/13 03:45:01;;;;;;;2.03;1.83;;;;;19.90;96590.00;;;;4997086;28;20691;-73
2023/07/13 03:47:50;;;;;;;3.67;2.30;;;;;20.10;96566.00;;;;4990147;28;20237;-70
2023/07/13 03:50:39;;;;;;;3.80;2.30;;;;;20.10;96553.00;;;;4998631;28;20696;-70
2023/07/13 03:53:28;;;;;;;5.27;1.80;;;;;20.10;96546.00;;;;5001043;28;20218;-72
2023/07/13 03:56:19;;;;;;;3.37;1.87;;;;;19.70;96546.00;;;;5008392;28;20234;-71
2023/07/13 03:59:08;;;;;;;3.40;2.10;;;;;19.90;96572.00;;;;4994735;28;20210;-72
2023/07/13 04:01:57;;;;;;;2.70;2.20;;;;;19.90;96597.00;;;;4992729;28;20201;-72
2023/07/13 04:04:46;;;;;;;9.30;2.00;;;;;19.90;96646.00;;;;4996443;28;20203;-71
2023/07/13 04:07:35;;;;;;;2.27;2.00;;;;;19.60;96689.00;;;;4997684;28;20228;-72
2023/07/13 04:10:24;;;;;;;1.90;1.80;;;;;20.10;96702.00;;;;4990829;28;20211;-69
2023/07/13 04:13:15;;;;;;;1.87;1.70;;;;;20.30;96724.00;;;;5001264;28;20205;-72
2023/07/13 04:16:04;;;;;;;3.17;1.80;;;;;20.30;96711.00;;;;5007466;28;21096;-72
2023/07/13 04:18:59;;;;;;;3.30;1.60;;;;;20.00;96715.00;;;;5000082;28;20614;-72
2023/07/13 04:21:48;;;;;;;3.93;2.33;;;;;19.90;96728.00;;;;4990393;28;20574;-72
2023/07/13 04:24:38;;;;;;;4.13;2.93;;;;;19.90;96751.00;;;;4991348;28;20590;-72
2023/07/13 04:27:28;;;;;;;2.20;1.50;;;;;20.30;96755.00;;;;5005813;28;20229;-71
2023/07/13 04:30:19;;;;;;;7.60;3.43;;;;;20.40;96763.00;;;;4985656;28;20206;-72
2023/07/13 04:33:08;;;;;;;3.70;1.57;;;;;20.40;96759.00;;;;5008019;28;20224;-72
2023/07/13 04:35:59;;;;;;;1.77;1.33;;;;;20.60;96754.00;;;;5007306;28;20225;-72
2023/07/13 04:38:48;;;;;;;2.27;1.93;;;;;20.50;96762.00;;;;5007751;28;20194;-72
2023/07/13 04:41:37;;;;;;;1.80;1.63;;;;;20.20;96779.00;;;;4999052;28;20212;-73
2023/07/13 04:44:26;;;;;;;3.13;2.77;;;;;20.30;96778.00;;;;5000319;28;20202;-72
2023/07/13 04:47:17;;;;;;;2.37;1.80;;;;;20.50;96787.00;;;;4988662;28;20233;-71
2023/07/13 04:50:06;;;;;;;2.07;1.83;;;;;20.60;96771.00;;;;5010486;28;20682;-71
2023/07/13 04:52:55;;;;;;;4.83;2.37;;;;;20.60;96775.00;;;;4987526;28;20229;-71
2023/07/13 04:55:45;;;;;;;2.57;1.80;;;;;20.70;96776.00;;;;4984943;28;20250;-72
2023/07/13 04:58:34;;;;;;;2.13;1.77;;;;;20.70;96773.00;;;;5006107;28;20205;-71
2023/07/13 05:01:24;;;;;;;3.57;1.80;;;;;20.70;96779.00;;;;5010538;28;20209;-71
2023/07/13 05:04:15;;;;;;;1.80;1.17;;;;;20.80;96785.00;;;;4993224;28;20733;-72
2023/07/13 05:07:04;;;;;;;2.47;1.80;;;;;21.00;96782.00;;;;4998531;28;20714;-72
2023/07/13 05:09:54;;;;;;;6.93;2.00;;;;;20.90;96780.00;;;;5003067;28;20783;-73
2023/07/13 05:12:43;;;;;;;1.83;1.73;;;;;20.90;96774.00;;;;4987145;28;20207;-72
2023/07/13 05:15:34;;;;;;;1.83;1.53;;;;;20.80;96783.00;;;;5009357;28;20820;-72
2023/07/13 05:18:23;;;;;;;5.93;1.77;;;;;20.90;96773.00;;;;5007461;28;20702;-71
2023/07/13 05:21:13;;;;;;;1.85;1.65;;;;;20.90;96766.00;;;;4987052;28;20325;-72
2023/07/13 05:24:02;;;;;;;3.90;1.50;;;;;21.10;96760.00;;;;4991786;28;20205;-72
2023/07/13 05:26:55;;;;;;;2.13;1.80;;;;;21.30;96757.00;;;;4996272;28;20229;-72
2023/07/13 05:29:45;;;;;;;1.50;1.40;;;;;21.50;96754.00;;;;5022183;23;20229;-90
2023/07/13 05:32:35;;;;;;;4.37;1.70;;;;;21.60;96753.00;;;;5012467;28;20217;-89
2023/07/13 05:35:24;;;;;;;2.67;1.60;;;;;21.80;96751.00;;;;5031829;28;20217;-89
2023/07/13 05:38:14;;;;;;;2.70;2.17;;;;;21.80;96752.00;;;;5028323;28;20233;-91
2023/07/13 05:41:05;;;;;;;2.00;1.90;;;;;21.80;96744.00;;;;5023523;28;20205;-90
2023/07/13 05:43:56;;;;;;;3.07;1.77;;;;;22.10;96759.00;;;;5025682;28;20205;-91
2023/07/13 05:46:45;;;;;;;3.13;1.60;;;;;22.40;96763.00;;;;5015961;28;20225;-92
2023/07/13 05:49:34;;;;;;;3.67;1.53;;;;;22.20;96758.00;;;;5024988;28;20236;-90
2023/07/13 05:52:23;;;;;;;1.60;1.50;;;;;22.50;96757.00;;;;5016879;28;20206;-89
2023/07/13 05:55:14;;;;;;;1.87;1.63;;;;;22.20;96754.00;;;;5020753;28;20224;-91
2023/07/13 05:58:03;;;;;;;2.63;1.60;;;;;21.90;96764.00;;;;5033118;28;20696;-90
2023/07/13 06:01:01;;;;;;;2.87;1.70;;;;;22.50;96766.00;;;;5024068;28;20198;-92
2023/07/13 06:03:50;;;;;;;2.87;1.67;;;;;22.20;96764.00;;;;5026054;28;20213;-90
2023/07/13 06:06:39;;;;;;;2.40;1.43;;;;;22.40;96760.00;;;;5031195;28;20256;-88
2023/07/13 06:09:28;;;;;;;1.57;1.47;;;;;22.80;96756.00;;;;5015078;28;20260;-89
2023/07/13 06:12:19;;;;;;;1.33;1.23;;;;;23.00;96770.00;;;;5024645;28;20216;-90
2023/07/13 06:15:09;;;;;;;2.40;2.07;;;;;23.10;96764.00;;;;5022141;28;20652;-88
2023/07/13 06:17:59;;;;;;;1.97;1.63;;;;;23.30;96766.00;;;;5016271;28;20225;-89
2023/07/13 06:20:48;;;;;;;1.10;1.00;;;;;23.20;96775.00;;;;5027616;28;20205;-88
2023/07/13 06:23:38;;;;;;;2.30;1.87;;;;;23.30;96776.00;;;;5016763;28;20202;-89
2023/07/13 06:26:27;;;;;;;2.43;1.93;;;;;23.40;96767.00;;;;5029251;28;20229;-88
2023/07/13 06:29:18;;;;;;;5.00;1.33;;;;;23.60;96786.00;;;;5027614;28;20671;-88
2023/07/13 06:32:09;;;;;;;3.00;1.40;;;;;23.70;96802.00;;;;5043656;28;20201;-89
2023/07/13 06:34:58;;;;;;;2.20;1.47;;;;;23.80;96813.00;;;;5042456;28;20205;-89
2023/07/13 06:37:47;;;;;;;1.90;1.27;;;;;23.90;96799.00;;;;5049192;28;20278;-88
2023/07/13 06:40:36;;;;;;;1.50;1.40;;;;;24.00;96796.00;;;;5048959;28;20279;-88
2023/07/13 06:43:25;;;;;;;4.20;1.80;;;;;24.20;96803.00;;;;5042235;28;20197;-88
2023/07/13 06:46:16;;;;;;;1.57;1.27;;;;;24.30;96809.00;;;;5049132;28;20225;-87
2023/07/13 06:49:05;;;;;;;2.97;1.47;;;;;24.40;96802.00;;;;5044641;28;20607;-88
2023/07/13 06:51:54;;;;;;;1.23;1.13;;;;;24.50;96800.00;;;;5040817;28;20212;-88
2023/07/13 06:54:43;;;;;;;1.37;1.27;;;;;24.50;96805.00;;;;5048652;28;20201;-87
2023/07/13 06:57:32;;;;;;;2.00;1.20;;;;;24.50;96799.00;;;;5043271;28;20648;-89
2023/07/13 07:00:22;;;;;;;3.20;1.40;;;;;24.10;96805.00;;;;5051010;28;20200;-87
2023/07/13 07:03:12;;;;;;;3.50;1.57;;;;;24.50;96812.00;;;;5038824;28;20212;-87
2023/07/13 07:06:02;;;;;;;2.73;1.50;;;;;24.50;96811.00;;;;5041561;28;20225;-87
2023/07/13 07:08:52;;;;;;;2.73;1.17;;;;;24.70;96817.00;;;;5049525;28;20196;-87
2023/07/13 07:11:42;;;;;;;3.00;1.60;;;;;24.50;96816.00;;;;5048274;28;20197;-87
2023/07/13 07:14:35;;;;;;;1.53;1.30;;;;;24.60;96805.00;;;;5048896;28;20254;-87
2023/07/13 07:17:25;;;;;;;1.70;1.60;;;;;24.90;96806.00;;;;5041191;28;20228;-87
2023/07/13 07:20:15;;;;;;;2.37;1.40;;;;;25.00;96802.00;;;;5043994;28;20208;-88
2023/07/13 07:23:04;;;;;;;2.07;1.83;;;;;25.10;96799.00;;;;5045275;28;20234;-89
2023/07/13 07:25:53;;;;;;;3.07;1.47;;;;;25.20;96805.00;;;;5044472;28;20718;-88
2023/07/13 07:28:43;;;;;;;1.43;1.33;;;;;25.40;96792.00;;;;5045202;28;20208;-89
2023/07/13 07:31:34;;;;;;;3.77;1.33;;;;;25.80;96794.00;;;;5032734;28;20205;-88
2023/07/13 07:34:26;;;;;;;2.00;1.70;;;;;25.90;96793.00;;;;5030080;28;20220;-88
2023/07/13 07:37:17;;;;;;;2.17;1.63;;;;;26.00;96792.00;;;;5035638;28;20205;-88
2023/07/13 07:40:09;;;;;;;2.47;1.30;;;;;26.40;96786.00;;;;5045560;28;20213;-87
2023/07/13 07:43:01;;;;;;;3.00;1.40;;;;;26.30;96782.00;;;;5029290;28;20209;-87
2023/07/13 07:45:50;;;;;;;2.03;1.40;;;;;26.60;96800.00;;;;5037265;28;20221;-86
2023/07/13 07:48:40;;;;;;;2.03;1.50;;;;;26.80;96788.00;;;;5029661;28;20223;-88
2023/07/13 07:51:29;;;;;;;2.17;1.70;;;;;27.00;96778.00;;;;5029293;28;20209;-88
2023/07/13 07:54:19;;;;;;;6.00;1.20;;;;;26.80;96775.00;;;;5030086;28;20692;-87
2023/07/13 07:57:11;;;;;;;2.57;1.33;;;;;26.80;96786.00;;;;5030080;28;20216;-87
2023/07/13 08:00:03;;;;;;;1.37;1.27;;;;;27.10;96788.00;;;;5029111;28;20228;-87
2023/07/13 08:02:55;;;;;;;4.40;1.83;;;;;26.80;96796.00;;;;5028927;28;20206;-88
2023/07/13 08:06:04;;;;;;;1.43;1.17;;;;;27.30;96799.00;;;;5029448;28;20230;-88
2023/07/13 08:08:57;;;;;;;1.53;1.20;;;;;26.80;96783.00;;;;5037218;28;20200;-88
2023/07/13 08:11:48;;;;;;;0.97;0.90;;;;;26.80;96788.00;;;;5030394;28;20209;-89
2023/07/13 08:14:39;;;;;;;1.90;1.30;;;;;27.00;96771.00;;;;5029375;28;20229;-89
2023/07/13 08:17:39;;;;;;;2.33;1.80;;;;;27.50;96788.00;;;;5028773;28;20202;-90
2023/07/13 08:20:28;;;;;;;2.40;1.30;;;;;27.70;96789.00;;;;5035898;28;20423;-88
2023/07/13 08:23:17;;;;;;;1.40;1.17;;;;;27.60;96780.00;;;;5033111;28;20252;-90
2023/07/13 08:26:06;;;;;;;1.07;1.03;;;;;28.10;96776.00;;;;5029346;28;20661;-88
2023/07/13 08:28:57;;;;;;;1.17;1.07;;;;;28.30;96771.00;;;;5028560;28;20214;-87
2023/07/13 08:31:46;;;;;;;1.13;0.97;;;;;28.20;96787.00;;;;5029067;28;20759;-87
2023/07/13 08:34:35;;;;;;;1.13;0.97;;;;;28.40;96785.00;;;;5029302;28;20283;-87
2023/07/13 08:37:24;;;;;;;1.03;0.90;;;;;28.40;96792.00;;;;5029162;28;20407;-87
2023/07/13 08:40:14;;;;;;;1.10;1.00;;;;;27.50;96788.00;;;;5028077;28;20266;-88
2023/07/13 08:43:03;;;;;;;3.07;1.10;;;;;28.20;96785.00;;;;5041725;28;20215;-88
2023/07/13 08:45:58;;;;;;;1.40;1.00;;;;;28.60;96784.00;;;;5038441;28;20711;-89
2023/07/13 08:48:51;;;;;;;2.00;1.40;;;;;27.70;96789.00;;;;5029682;28;20246;-88
2023/07/13 08:51:44;;;;;;;1.77;1.10;;;;;27.80;96780.00;;;;5028657;28;20212;-88
2023/07/13 08:54:38;;;;;;;1.60;1.20;;;;;28.70;96778.00;;;;5028525;28;20204;-88
2023/07/13 08:57:30;;;;;;;1.00;0.90;;;;;28.90;96769.00;;;;5028510;28;20342;-88
2023/07/13 09:00:20;;;;;;;1.53;1.43;;;;;29.10;96769.00;;;;5028476;28;20208;-90
2023/07/13 09:03:20;;;;;;;1.67;1.30;;;;;29.20;96775.00;;;;5028192;28;20637;-88
2023/07/13 09:06:12;;;;;;;3.83;1.17;;;;;29.70;96765.00;;;;5029536;28;20712;-88
2023/07/13 09:09:03;;;;;;;3.57;1.10;;;;;28.20;96755.00;;;;5028134;28;20210;-88
2023/07/13 09:12:00;;;;;;;2.73;1.00;;;;;29.50;96742.00;;;;5029550;28;20197;-88
2023/07/13 09:14:51;;;;;;;1.17;0.90;;;;;29.70;96749.00;;;;5036521;28;20212;-90
2023/07/13 09:17:45;;;;;;;1.47;0.80;;;;;30.00;96755.00;;;;5028819;28;20207;-88
2023/07/13 09:20:38;;;;;;;1.40;0.90;;;;;30.30;96760.00;;;;5035329;28;20355;-88
2023/07/13 09:23:30;;;;;;;1.50;1.00;;;;;29.90;96759.00;;;;5033424;28;20471;-88
2023/07/13 09:26:21;;;;;;;2.70;0.93;;;;;29.80;96763.00;;;;5036585;28;20234;-88
2023/07/13 09:29:16;;;;;;;1.70;1.60;;;;;31.00;96771.00;;;;5030693;28;20222;-89
2023/07/13 09:32:08;;;;;;;1.80;1.33;;;;;30.90;96774.00;;;;5038457;28;20211;-88
2023/07/13 09:34:57;;;;;;;1.27;0.90;;;;;30.70;96773.00;;;;5031702;28;20194;-88
2023/07/13 09:37:48;;;;;;;1.27;0.77;;;;;31.50;96765.00;;;;5039526;28;20681;-89
2023/07/13 09:40:44;;;;;;;0.97;0.83;;;;;31.70;96755.00;;;;5031285;28;20196;-88
2023/07/13 09:43:33;;;;;;;1.60;1.13;;;;;32.20;96770.00;;;;5031634;28;20271;-88
2023/07/13 09:46:23;;;;;;;2.97;1.10;;;;;32.30;96773.00;;;;5038292;28;20312;-88
2023/07/13 09:49:12;;;;;;;1.70;1.10;;;;;32.40;96770.00;;;;5031883;28;20222;-88
2023/07/13 09:52:06;;;;;;;1.57;0.93;;;;;31.00;96762.00;;;;5044591;28;20257;-89
2023/07/13 09:54:58;;;;;;;2.83;1.60;;;;;31.90;96766.00;;;;5034061;28;20288;-88
2023/07/13 09:57:49;;;;;;;1.13;1.02;;;;;32.30;96771.00;;;;5033699;28;20260;-88
2023/07/13 10:00:39;;;;;;;2.28;0.82;;;;;32.60;96768.00;;;;5030538;28;20203;-89
2023/07/13 10:03:32;;;;;;;2.80;1.42;;;;;32.20;96784.00;;;;5030805;28;20204;-89
2023/07/13 10:06:23;;;;;;;1.10;1.00;;;;;31.80;96770.00;;;;5034537;28;20237;-88
2023/07/13 10:09:14;;;;;;;2.53;1.00;;;;;31.10;96754.00;;;;5032300;28;20248;-89
2023/07/13 10:12:13;;;;;;;2.33;1.10;;;;;31.90;96781.00;;;;5032388;28;20207;-87
2023/07/13 10:15:06;;;;;;;2.60;1.00;;;;;31.10;96771.00;;;;5030356;28;20245;-90
2023/07/13 10:18:05;;;;;;;1.15;1.00;;;;;32.20;96763.00;;;;5031984;28;20204;-89
2023/07/13 10:21:00;;;;;;;1.48;0.90;;;;;32.40;96771.00;;;;5041173;28;20206;-86
2023/07/13 10:23:58;;;;;;;1.40;0.80;;;;;32.20;96756.00;;;;5043362;28;20678;-88
2023/07/13 10:26:52;;;;;;;0.70;0.70;;;;;32.30;96757.00;;;;5031175;28;20229;-87
2023/07/13 10:29:47;;;;;;;1.83;1.15;;;;;32.20;96751.00;;;;5029924;28;20235;-89
2023/07/13 10:32:36;;;;;;;3.13;1.40;;;;;32.00;96753.00;;;;5029318;28;20217;-89
2023/07/13 10:35:26;;;;;;;3.25;0.95;;;;;32.20;96753.00;;;;5039019;28;20230;-88
2023/07/13 10:38:18;;;;;;;2.33;1.00;;;;;32.70;96764.00;;;;5044972;28;20201;-89
2023/07/13 10:41:11;;;;;;;1.08;0.90;;;;;32.60;96758.00;;;;5041413;28;20205;-88
2023/07/13 10:44:01;;;;;;;1.40;1.10;;;;;32.90;96758.00;;;;5036535;28;20200;-88
2023/07/13 10:46:52;;;;;;;1.17;1.10;;;;;32.60;96769.00;;;;5037990;28;20250;-88
2023/07/13 10:49:42;;;;;;;1.02;0.90;;;;;32.80;96761.00;;;;5028839;28;20730;-87
2023/07/13 10:52:43;;;;;;;1.55;0.93;;;;;33.10;96750.00;;;;5028823;28;20257;-88
2023/07/13 10:55:38;;;;;;;2.15;1.10;;;;;33.60;96754.00;;;;5028531;28;20221;-87
2023/07/13 10:58:34;;;;;;;0.95;0.90;;;;;33.70;96756.00;;;;5045609;28;20242;-87
2023/07/13 11:01:25;;;;;;;2.95;1.20;;;;;34.20;96744.00;;;;5028861;28;20579;-88
2023/07/13 11:04:16;;;;;;;1.00;0.90;;;;;34.10;96735.00;;;;5036601;28;20215;-87
2023/07/13 11:07:19;;;;;;;1.30;1.20;;;;;34.30;96736.00;;;;5043140;28;20225;-89
2023/07/13 11:10:49;;;;;;;2.30;1.33;;;;;33.40;96730.00;;;;5030496;28;20695;-87
2023/07/13 11:13:57;;;;;;;1.73;1.10;;;;;34.50;96721.00;;;;5031318;28;20663;-88
2023/07/13 11:16:47;;;;;;;3.45;1.38;;;;;34.20;96717.00;;;;5038082;28;20231;-87
2023/07/13 11:19:42;;;;;;;2.70;1.20;;;;;33.80;96736.00;;;;5047001;28;20268;-89
2023/07/13 11:22:44;;;;;;;1.63;1.30;;;;;35.20;96702.00;;;;5042078;28;20216;-89
2023/07/13 11:25:34;;;;;;;1.08;1.00;;;;;34.60;96704.00;;;;5047944;28;20308;-89
2023/07/13 11:28:26;;;;;;;1.27;0.98;;;;;35.70;96705.00;;;;5047894;28;20225;-91
2023/07/13 11:31:16;;;;;;;1.40;1.02;;;;;36.30;96700.00;;;;5038145;28;20221;-90
2023/07/13 11:34:15;;;;;;;2.42;1.50;;;;;35.80;96710.00;;;;5043889;28;20204;-89
2023/07/13 11:37:09;;;;;;;1.27;1.15;;;;;35.10;96708.00;;;;5035096;28;20297;-88
2023/07/13 11:39:59;;;;;;;1.30;1.20;;;;;34.60;96715.00;;;;5029755;28;20771;-89
2023/07/13 11:42:48;;;;;;;2.33;1.23;;;;;33.80;96742.00;;;;5053661;28;20241;-87
2023/07/13 11:45:37;;;;;;;0.93;0.93;;;;;33.80;96756.00;;;;5045989;28;20228;-88
2023/07/13 11:48:36;;;;;;;1.40;1.30;;;;;33.50;96745.00;;;;5043850;28;20200;-86
2023/07/13 11:51:30;;;;;;;1.55;1.42;;;;;32.80;96749.00;;;;5035151;28;20494;-86
2023/07/13 11:54:27;;;;;;;1.13;1.00;;;;;32.30;96755.00;;;;5045572;28;20254;-86
2023/07/13 11:57:28;;;;;;;2.63;1.48;;;;;32.10;96751.00;;;;5044673;28;20622;-86
2023/07/13 12:00:20;;;;;;;1.92;1.73;;;;;31.30;96750.00;;;;5043200;28;20213;-86
2023/07/13 12:03:12;;;;;;;4.07;1.67;;;;;31.50;96747.00;;;;5042793;28;20712;-86
2023/07/13 12:06:02;;;;;;;2.85;1.27;;;;;31.30;96745.00;;;;5043612;28;20249;-86
2023/07/13 12:08:51;;;;;;;3.63;1.20;;;;;31.20;96728.00;;;;5038834;22;20233;-75
2023/07/13 12:11:44;;;;;;;3.47;1.33;;;;;31.00;96736.00;;;;5008205;28;20270;-75
2023/07/13 12:14:35;;;;;;;2.17;1.37;;;;;30.70;96732.00;;;;5009379;28;20259;-75
2023/07/13 12:17:26;;;;;;;1.20;1.10;;;;;30.60;96720.00;;;;5008751;28;20203;-75
2023/07/13 12:20:22;;;;;;;5.53;1.20;;;;;30.30;96726.00;;;;5005309;28;20232;-75
2023/07/13 12:23:22;;;;;;;2.83;1.20;;;;;30.10;96716.00;;;;5001730;28;20210;-75
2023/07/13 12:26:11;;;;;;;2.23;2.03;;;;;29.70;96718.00;;;;4997905;28;20215;-75
2023/07/13 12:29:05;;;;;;;2.00;1.43;;;;;29.60;96718.00;;;;5004804;28;20280;-75
2023/07/13 12:31:55;;;;;;;4.63;1.23;;;;;29.30;96708.00;;;;4988392;28;20256;-76
2023/07/13 12:34:53;;;;;;;8.03;1.50;;;;;29.20;96724.00;;;;5007992;28;20263;-75
2023/07/13 12:37:43;;;;;;;2.07;1.50;;;;;29.20;96729.00;;;;4999183;28;20600;-75
2023/07/13 12:40:36;;;;;;;1.43;1.07;;;;;29.00;96741.00;;;;5006885;28;20203;-75
2023/07/13 12:43:27;;;;;;;2.90;1.73;;;;;27.40;96765.00;;;;5008650;28;20567;-77
2023/07/13 12:46:21;;;;;;;6.97;2.53;;;;;26.30;96784.00;;;;5005302;28;20215;-76
2023/07/13 12:49:14;;;;;;;2.37;1.40;;;;;25.80;96802.00;;;;5007584;28;20701;-76
2023/07/13 12:52:15;;;;;;;3.93;1.87;;;;;25.80;96813.00;;;;5006914;28;20226;-76
2023/07/13 12:55:14;;;;;;;2.33;1.80;;;;;25.60;96818.00;;;;5010426;28;20438;-75
2023/07/13 12:58:05;;;;;;;2.20;1.93;;;;;25.10;96830.00;;;;5003237;28;20899;-75
2023/07/13 13:00:57;;;;;;;1.93;1.73;;;;;24.40;96817.00;;;;5008234;28;20237;-74
2023/07/13 13:03:51;;;;;;;4.97;2.43;;;;;24.20;96819.00;;;;5010888;28;20199;-72
2023/07/13 13:06:42;;;;;;;7.17;2.17;;;;;24.10;96831.00;;;;5011465;28;20198;-72
2023/07/13 13:09:31;;;;;;;5.33;2.43;;;;;23.40;96844.00;;;;5004658;28;20606;-72
2023/07/13 13:12:20;;;;;;;5.50;2.17;;;;;23.20;96840.00;;;;5006924;28;20206;-72
2023/07/13 13:15:11;;;;;;;3.67;2.33;;;;;23.30;96849.00;;;;5006705;28;20244;-72
2023/07/13 13:18:00;;;;;;;6.60;2.33;;;;;23.20;96869.00;;;;5004901;28;20206;-72
2023/07/13 13:20:52;;;;;;;3.07;2.13;;;;;22.80;96883.00;;;;5010313;28;20225;-73
2023/07/13 13:23:41;;;;;;;5.50;2.23;;;;;23.00;96872.00;;;;5007309;28;20593;-73
2023/07/13 13:26:30;;;;;;;9.40;2.77;;;;;23.10;96868.00;;;;5010205;28;20213;-71
2023/07/13 13:29:21;;;;;;;6.07;2.80;;;;;23.10;96845.00;;;;5009963;28;20222;-73
2023/07/13 13:32:12;;;;;;;6.60;3.17;;;;;23.00;96870.00;;;;5001456;28;20194;-71
2023/07/13 13:35:01;;;;;;;4.73;2.43;;;;;22.20;96879.00;;;;5010779;28;20214;-72
2023/07/13 13:37:52;;;;;;;7.40;3.00;;;;;22.60;96877.00;;;;5002503;28;20263;-72
2023/07/13 13:40:42;;;;;;;5.23;2.63;;;;;22.50;96883.00;;;;5009313;28;20763;-73
2023/07/13 13:43:31;;;;;;;4.63;2.73;;;;;22.70;96877.00;;;;5009954;28;20678;-72
2023/07/13 13:46:24;;;;;;;4.57;2.47;;;;;23.00;96869.00;;;;5010244;28;20268;-72
2023/07/13 13:49:17;;;;;;;2.83;2.00;;;;;23.00;96863.00;;;;5005395;28;20229;-72
2023/07/13 13:52:09;;;;;;;3.10;1.80;;;;;22.30;96862.00;;;;5010337;28;20212;-72
2023/07/13 13:55:00;;;;;;;3.30;1.97;;;;;22.60;96864.00;;;;5010283;28;20705;-72
2023/07/13 13:57:49;;;;;;;1.77;1.53;;;;;22.40;96849.00;;;;5010524;28;20794;-72
2023/07/13 14:00:39;;;;;;;4.17;2.27;;;;;22.30;96859.00;;;;5008925;28;20217;-72
2023/07/13 14:03:29;;;;;;;4.87;2.17;;;;;22.20;96856.00;;;;5008659;28;20675;-72
2023/07/13 14:06:18;;;;;;;2.43;1.73;;;;;22.20;96860.00;;;;5010325;28;20206;-74
2023/07/13 14:09:11;;;;;;;2.80;1.70;;;;;21.80;96863.00;;;;5009804;28;20234;-75
2023/07/13 14:12:01;;;;;;;2.00;1.43;;;;;21.80;96870.00;;;;4999484;28;20203;-74
2023/07/13 14:14:51;;;;;;;2.77;1.80;;;;;21.90;96867.00;;;;5001269;28;20212;-73
2023/07/13 14:17:40;;;;;;;3.63;2.27;;;;;22.10;96855.00;;;;4997124;28;20221;-73